Time;durP1;ratioP1;P1;durP2;ratioP2;P2;SDS_P1;SDS_P2;PMS_P1;PMS_P2;Temp;Humidity;BMP_temperature;BMP_pressure;BME280_temperature;BME280_humidity;BME280_pressure;Samples;Min_cycle;Max_cycle;Signal;HPM_P1;HPM_P2
2021/06/07 00:01:44;;;;;;;17.53;15.30;;;23.50;62.30;;;;;;5016980;28;20222;-51
2021/06/07 00:04:10;;;;;;;15.10;13.60;;;23.40;62.30;;;;;;5015900;28;20920;-48
2021/06/07 00:06:36;;;;;;;16.17;14.47;;;23.40;62.50;;;;;;5010859;28;20515;-49
2021/06/07 00:09:05;;;;;;;15.50;13.90;;;23.40;62.50;;;;;;5014503;28;20441;-48
2021/06/07 00:11:31;;;;;;;15.50;13.80;;;23.40;62.60;;;;;;5016614;28;20472;-50
2021/06/07 00:13:57;;;;;;;14.10;12.40;;;23.30;62.50;;;;;;5020605;28;20471;-51
2021/06/07 00:16:22;;;;;;;15.20;13.63;;;23.30;62.80;;;;;;5017030;28;20201;-51
2021/06/07 00:18:48;;;;;;;16.27;14.60;;;23.30;62.90;;;;;;5013650;28;20287;-49
2021/06/07 00:21:19;;;;;;;17.10;15.43;;;23.20;62.90;;;;;;5015861;28;20686;-51
2021/06/07 00:23:47;;;;;;;14.93;13.47;;;23.30;63.20;;;;;;5015454;28;20192;-51
2021/06/07 00:26:13;;;;;;;16.73;14.93;;;23.30;63.10;;;;;;5013486;28;20435;-51
2021/06/07 00:28:39;;;;;;;17.13;15.33;;;23.30;62.80;;;;;;5014545;28;20448;-51
2021/06/07 00:31:09;;;;;;;15.30;13.90;;;23.30;62.60;;;;;;5020440;28;20802;-50
2021/06/07 00:33:36;;;;;;;17.40;14.43;;;23.30;62.40;;;;;;5012288;28;20449;-51
2021/06/07 00:36:03;;;;;;;16.93;14.40;;;23.40;62.30;;;;;;5015980;28;20866;-46
2021/06/07 00:38:29;;;;;;;14.70;13.20;;;23.40;62.30;;;;;;5018524;28;20447;-51
2021/06/07 00:40:56;;;;;;;16.43;13.57;;;23.40;62.30;;;;;;5013083;28;20484;-49
2021/06/07 00:43:22;;;;;;;15.20;13.67;;;23.30;62.50;;;;;;5013019;28;20190;-51
2021/06/07 00:45:48;;;;;;;13.67;12.23;;;23.30;62.40;;;;;;5019065;28;20435;-49
2021/06/07 00:48:13;;;;;;;15.73;14.10;;;23.30;62.60;;;;;;5017410;28;20217;-48
2021/06/07 00:50:46;;;;;;;16.53;14.77;;;23.30;62.70;;;;;;5013601;28;20198;-50
2021/06/07 00:53:16;;;;;;;15.60;14.00;;;23.30;62.40;;;;;;5012473;28;20224;-49
2021/06/07 00:55:46;;;;;;;16.50;13.63;;;23.40;62.30;;;;;;5010023;28;20451;-50
2021/06/07 00:58:12;;;;;;;16.07;14.50;;;23.30;62.20;;;;;;5015168;28;21029;-47
2021/06/07 01:00:39;;;;;;;17.23;15.50;;;23.30;62.20;;;;;;5012549;28;20447;-50
2021/06/07 01:03:07;;;;;;;19.20;14.50;;;23.40;62.20;;;;;;5010827;28;20193;-47
2021/06/07 01:05:34;;;;;;;13.50;12.10;;;23.40;62.10;;;;;;5009330;28;20510;-50
2021/06/07 01:07:59;;;;;;;16.87;15.20;;;23.40;62.00;;;;;;5014081;28;20486;-50
2021/06/07 01:10:26;;;;;;;17.23;15.50;;;23.40;62.10;;;;;;5019658;28;20503;-47
2021/06/07 01:12:52;;;;;;;17.07;15.33;;;23.40;62.00;;;;;;5013721;28;20784;-49
2021/06/07 01:15:19;;;;;;;16.87;14.63;;;23.30;62.10;;;;;;5012789;28;20445;-50
2021/06/07 01:17:45;;;;;;;20.10;14.67;;;23.30;62.70;;;;;;5024172;28;20567;-48
2021/06/07 01:20:14;;;;;;;17.23;15.43;;;23.30;62.70;;;;;;5014640;28;20433;-48
2021/06/07 01:22:41;;;;;;;16.80;15.20;;;23.30;62.90;;;;;;5018627;28;20487;-47
2021/06/07 01:25:14;;;;;;;13.87;12.47;;;23.20;63.30;;;;;;5025761;28;20500;-50
2021/06/07 01:27:40;;;;;;;17.93;15.60;;;23.20;63.40;;;;;;5014039;28;20532;-47
2021/06/07 01:30:14;;;;;;;17.83;15.20;;;23.20;63.40;;;;;;5018981;28;20455;-50
2021/06/07 01:32:40;;;;;;;15.37;13.77;;;23.20;63.30;;;;;;5023473;28;20447;-51
2021/06/07 01:35:09;;;;;;;16.90;15.10;;;23.20;63.40;;;;;;5012151;28;20443;-51
2021/06/07 01:37:35;;;;;;;17.13;14.63;;;23.10;63.40;;;;;;5011249;28;20285;-50
2021/06/07 01:40:02;;;;;;;16.40;14.73;;;23.10;63.50;;;;;;5016392;28;20436;-49
2021/06/07 01:42:28;;;;;;;15.53;14.03;;;23.10;63.30;;;;;;5026858;28;20556;-46
2021/06/07 01:44:53;;;;;;;19.50;16.73;;;23.20;63.30;;;;;;5015030;28;20445;-49
2021/06/07 01:47:19;;;;;;;19.17;16.40;;;23.20;63.30;;;;;;5010764;28;20205;-51
2021/06/07 01:49:45;;;;;;;17.03;15.23;;;23.20;63.30;;;;;;5012751;28;20637;-47
2021/06/07 01:52:10;;;;;;;17.20;15.50;;;23.20;63.20;;;;;;5020209;28;20194;-50
2021/06/07 01:54:37;;;;;;;18.67;15.20;;;23.20;63.30;;;;;;5018598;28;20189;-46
2021/06/07 01:57:04;;;;;;;16.83;14.93;;;23.20;63.30;;;;;;5015012;28;20244;-50
2021/06/07 01:59:30;;;;;;;13.50;11.37;;;23.20;63.10;;;;;;5025009;28;20449;-50
2021/06/07 02:01:55;;;;;;;13.90;12.00;;;23.20;63.00;;;;;;5016097;28;20975;-51
2021/06/07 02:04:21;;;;;;;16.30;14.70;;;23.30;62.70;;;;;;5012864;28;21004;-51
2021/06/07 02:06:47;;;;;;;18.13;15.20;;;23.30;62.20;;;;;;5014163;28;20185;-51
2021/06/07 02:09:13;;;;;;;17.43;15.63;;;23.30;62.00;;;;;;5013501;28;20186;-51
2021/06/07 02:11:40;;;;;;;17.20;15.40;;;23.40;62.00;;;;;;5018635;28;20473;-51
2021/06/07 02:14:06;;;;;;;16.73;14.50;;;23.40;61.90;;;;;;5013219;28;20474;-48
2021/06/07 02:16:34;;;;;;;14.93;13.07;;;23.40;62.00;;;;;;5020350;28;20444;-49
2021/06/07 02:19:02;;;;;;;16.17;14.57;;;23.40;61.90;;;;;;5019247;28;20841;-48
2021/06/07 02:21:28;;;;;;;17.60;14.80;;;23.40;61.90;;;;;;5014824;28;20484;-51
2021/06/07 02:23:55;;;;;;;18.60;14.57;;;23.30;61.90;;;;;;5021946;28;20444;-50
2021/06/07 02:26:22;;;;;;;14.67;13.20;;;23.30;62.10;;;;;;5026370;28;20548;-51
2021/06/07 02:28:56;;;;;;;21.37;15.73;;;23.30;62.00;;;;;;5020839;28;20475;-48
2021/06/07 02:31:23;;;;;;;16.50;14.30;;;23.30;62.00;;;;;;5018656;28;20475;-48
2021/06/07 02:33:56;;;;;;;16.10;14.23;;;23.30;62.20;;;;;;5016033;28;20839;-51
2021/06/07 02:36:26;;;;;;;14.10;11.53;;;23.30;62.20;;;;;;5016079;28;20838;-51
2021/06/07 02:38:52;;;;;;;16.60;14.77;;;23.20;62.20;;;;;;5019300;28;20451;-51
2021/06/07 02:41:18;;;;;;;19.17;15.03;;;23.20;62.20;;;;;;5018361;28;20546;-50
2021/06/07 02:43:45;;;;;;;17.03;15.23;;;23.10;62.30;;;;;;5020851;28;20203;-50
2021/06/07 02:46:11;;;;;;;14.03;12.47;;;23.20;62.40;;;;;;5016530;28;21411;-49
2021/06/07 02:48:38;;;;;;;17.03;14.57;;;23.10;62.30;;;;;;5021760;28;20460;-47
2021/06/07 02:51:04;;;;;;;18.40;16.50;;;23.10;62.30;;;;;;5028410;28;20208;-47
2021/06/07 02:53:30;;;;;;;14.60;13.03;;;23.20;62.30;;;;;;5014683;28;20451;-46
2021/06/07 02:55:57;;;;;;;16.53;13.83;;;23.20;62.20;;;;;;5020979;28;20472;-50
2021/06/07 02:58:24;;;;;;;21.33;15.57;;;23.10;61.90;;;;;;5023006;28;20523;-46
2021/06/07 03:00:55;;;;;;;19.23;15.60;;;23.10;62.10;;;;;;5015708;28;20495;-49
2021/06/07 03:03:22;;;;;;;16.20;14.10;;;23.10;62.30;;;;;;5017346;28;20452;-50
2021/06/07 03:05:50;;;;;;;19.77;15.33;;;23.00;62.40;;;;;;5020433;28;20443;-47
2021/06/07 03:08:19;;;;;;;18.10;14.60;;;23.10;63.30;;;;;;5019433;28;20527;-50
2021/06/07 03:10:47;;;;;;;21.13;15.20;;;23.00;62.70;;;;;;5019179;28;20545;-50
2021/06/07 03:13:14;;;;;;;18.80;16.80;;;23.00;62.70;;;;;;5016361;28;20437;-50
2021/06/07 03:15:39;;;;;;;18.33;14.43;;;23.00;62.80;;;;;;5013551;28;20791;-46
2021/06/07 03:18:06;;;;;;;20.07;16.93;;;22.90;62.80;;;;;;5020499;28;20485;-49
2021/06/07 03:20:34;;;;;;;18.63;16.73;;;23.00;63.00;;;;;;5016334;28;20198;-51
2021/06/07 03:23:02;;;;;;;19.10;16.33;;;23.00;62.90;;;;;;5022515;28;20499;-50
2021/06/07 03:25:29;;;;;;;22.80;16.83;;;23.00;62.90;;;;;;5022490;28;20452;-49
2021/06/07 03:27:55;;;;;;;22.20;17.57;;;22.90;62.80;;;;;;5021164;28;20443;-50
2021/06/07 03:30:21;;;;;;;20.10;15.17;;;22.90;63.00;;;;;;5015079;28;20544;-46
2021/06/07 03:32:47;;;;;;;20.67;17.17;;;22.80;63.00;;;;;;5021443;28;21002;-51
2021/06/07 03:35:15;;;;;;;22.30;17.40;;;22.80;63.10;;;;;;5019596;28;20459;-49
2021/06/07 03:37:41;;;;;;;18.20;13.40;;;22.80;63.30;;;;;;5022888;28;20204;-49
2021/06/07 03:40:10;;;;;;;19.80;16.10;;;22.80;63.50;;;;;;5018368;28;20433;-49
2021/06/07 03:42:36;;;;;;;19.37;14.67;;;22.70;63.50;;;;;;5018064;28;20587;-51
2021/06/07 03:45:05;;;;;;;22.40;15.20;;;22.80;63.50;;;;;;5021747;28;20444;-46
2021/06/07 03:47:30;;;;;;;23.50;18.30;;;22.80;63.30;;;;;;5011752;28;20537;-50
2021/06/07 03:49:56;;;;;;;18.50;15.07;;;22.90;63.30;;;;;;5020016;28;20444;-47
2021/06/07 03:52:21;;;;;;;20.03;15.53;;;22.80;63.00;;;;;;5021944;28;20189;-46
2021/06/07 03:54:47;;;;;;;28.57;17.37;;;22.80;63.00;;;;;;5015678;28;20709;-49
2021/06/07 03:57:13;;;;;;;27.87;17.27;;;22.90;63.10;;;;;;5018057;28;20562;-50
2021/06/07 03:59:39;;;;;;;24.30;17.90;;;22.90;63.10;;;;;;5026967;28;20600;-47
2021/06/07 04:02:08;;;;;;;21.43;15.70;;;23.00;63.30;;;;;;5010917;28;20272;-47
2021/06/07 04:04:34;;;;;;;24.07;16.97;;;22.90;63.30;;;;;;5013552;28;21093;-49
2021/06/07 04:07:00;;;;;;;27.90;19.17;;;23.00;63.40;;;;;;5017414;28;20432;-49
2021/06/07 04:09:26;;;;;;;24.97;19.60;;;22.90;63.30;;;;;;5019821;28;20194;-48
2021/06/07 04:11:52;;;;;;;27.13;20.67;;;22.80;63.80;;;;;;5021768;28;20197;-48
2021/06/07 04:14:18;;;;;;;18.73;15.17;;;22.80;63.90;;;;;;5017283;28;20586;-46
2021/06/07 04:16:43;;;;;;;22.03;17.57;;;22.80;64.00;;;;;;5016436;28;20205;-47
2021/06/07 04:19:09;;;;;;;23.83;18.17;;;22.80;63.80;;;;;;5014931;28;20200;-49
2021/06/07 04:21:37;;;;;;;30.10;19.70;;;22.90;64.00;;;;;;5017472;28;20573;-49
2021/06/07 04:24:04;;;;;;;25.60;19.17;;;22.80;63.80;;;;;;5016395;28;20449;-50
2021/06/07 04:26:30;;;;;;;24.47;18.27;;;22.80;63.90;;;;;;5020496;28;21430;-46
2021/06/07 04:28:55;;;;;;;25.67;18.80;;;22.80;64.10;;;;;;5021460;28;20441;-51
2021/06/07 04:31:21;;;;;;;24.30;18.47;;;22.70;64.10;;;;;;5019739;28;20284;-46
2021/06/07 04:33:46;;;;;;;23.40;18.30;;;22.70;64.30;;;;;;5015151;28;20228;-49
2021/06/07 04:36:12;;;;;;;23.00;17.50;;;22.70;64.30;;;;;;5016333;28;20199;-50
2021/06/07 04:38:37;;;;;;;26.47;18.37;;;22.70;64.40;;;;;;5014694;28;20280;-51
2021/06/07 04:41:03;;;;;;;23.03;19.37;;;22.70;64.60;;;;;;5016575;28;20695;-48
2021/06/07 04:43:28;;;;;;;26.07;18.47;;;22.60;64.90;;;;;;5015681;28;20197;-47
2021/06/07 04:45:54;;;;;;;27.30;19.90;;;22.50;65.10;;;;;;5021109;28;21042;-50
2021/06/07 04:48:20;;;;;;;23.50;18.27;;;22.50;65.50;;;;;;5017088;28;20197;-50
2021/06/07 04:50:46;;;;;;;26.93;18.30;;;22.40;65.40;;;;;;5016852;28;20188;-50
2021/06/07 04:53:12;;;;;;;24.27;17.77;;;22.30;65.90;;;;;;5019431;28;20653;-50
2021/06/07 04:55:49;;;;;;;24.53;17.70;;;22.30;66.00;;;;;;5017316;28;20450;-49
2021/06/07 04:58:25;;;;;;;25.03;16.70;;;22.20;66.60;;;;;;5014318;28;20447;-50
2021/06/07 05:01:03;;;;;;;22.27;16.40;;;22.30;66.50;;;;;;5012268;28;20495;-48
2021/06/07 05:03:30;;;;;;;22.17;16.27;;;22.20;66.70;;;;;;5017409;28;21014;-50
2021/06/07 05:05:58;;;;;;;29.40;18.90;;;22.20;66.80;;;;;;5020034;28;20440;-50
2021/06/07 05:08:25;;;;;;;21.83;17.70;;;22.20;66.70;;;;;;5017544;28;20446;-50
2021/06/07 05:10:51;;;;;;;25.10;19.00;;;22.30;66.50;;;;;;5015413;28;20458;-47
2021/06/07 05:13:17;;;;;;;23.40;17.63;;;22.30;66.70;;;;;;5017420;28;20444;-50
2021/06/07 05:15:43;;;;;;;20.63;15.87;;;22.20;66.90;;;;;;5034944;28;20935;-51
2021/06/07 05:18:10;;;;;;;27.03;18.00;;;22.20;67.00;;;;;;5016697;28;20685;-47
2021/06/07 05:20:36;;;;;;;22.53;16.90;;;22.10;67.70;;;;;;5017372;28;20441;-50
2021/06/07 05:23:03;;;;;;;25.87;17.33;;;22.00;68.00;;;;;;5013606;28;20476;-49
2021/06/07 05:25:30;;;;;;;26.43;18.07;;;21.90;68.20;;;;;;5028013;28;20448;-46
2021/06/07 05:27:57;;;;;;;23.17;17.53;;;21.80;68.60;;;;;;5027480;28;20455;-47
2021/06/07 05:30:24;;;;;;;25.70;17.57;;;21.80;68.70;;;;;;5018733;28;20441;-47
2021/06/07 05:32:50;;;;;;;23.50;17.43;;;21.70;69.50;;;;;;5019102;28;20447;-46
2021/06/07 05:35:18;;;;;;;25.80;17.50;;;21.60;69.70;;;;;;5021732;28;20435;-46
2021/06/07 05:37:44;;;;;;;21.30;16.13;;;21.70;69.80;;;;;;5025912;28;20708;-46
2021/06/07 05:40:11;;;;;;;28.73;18.40;;;21.70;69.60;;;;;;5020448;28;20471;-46
2021/06/07 05:42:37;;;;;;;23.10;16.27;;;21.70;69.60;;;;;;5021926;28;20488;-50
2021/06/07 05:45:08;;;;;;;21.03;16.07;;;21.80;69.60;;;;;;5019873;28;20448;-50
2021/06/07 05:47:33;;;;;;;24.00;16.90;;;21.90;69.40;;;;;;5015283;28;20204;-50
2021/06/07 05:49:59;;;;;;;25.73;18.57;;;21.90;69.20;;;;;;5021392;28;20435;-50
2021/06/07 05:52:25;;;;;;;24.50;16.97;;;21.90;69.10;;;;;;5021129;28;20248;-49
2021/06/07 05:54:50;;;;;;;28.63;18.00;;;21.90;69.20;;;;;;5022784;28;20260;-50
2021/06/07 05:57:16;;;;;;;23.70;17.57;;;21.90;69.40;;;;;;5025322;28;20208;-48
2021/06/07 05:59:43;;;;;;;25.97;16.50;;;21.90;69.30;;;;;;5025944;28;20284;-51
2021/06/07 06:02:10;;;;;;;29.80;17.83;;;21.80;69.30;;;;;;5022866;28;20232;-49
2021/06/07 06:04:40;;;;;;;24.80;18.60;;;21.90;69.50;;;;;;5019410;28;20424;-46
2021/06/07 06:07:06;;;;;;;25.03;17.13;;;21.90;69.70;;;;;;5019523;28;20986;-48
2021/06/07 06:09:31;;;;;;;24.87;16.87;;;21.90;69.80;;;;;;5028679;28;20953;-50
2021/06/07 06:11:57;;;;;;;24.47;18.80;;;21.80;69.60;;;;;;5025730;28;20475;-48
2021/06/07 06:14:24;;;;;;;24.47;17.70;;;21.90;69.70;;;;;;5018732;28;20189;-50
2021/06/07 06:16:50;;;;;;;26.60;19.57;;;21.90;69.70;;;;;;5018492;28;20198;-51
2021/06/07 06:19:16;;;;;;;28.93;20.30;;;21.90;69.70;;;;;;5022011;28;20486;-47
2021/06/07 06:21:42;;;;;;;28.50;20.10;;;21.90;69.70;;;;;;5029251;28;20570;-47
2021/06/07 06:24:09;;;;;;;25.00;17.30;;;22.00;69.80;;;;;;5019728;28;20200;-47
2021/06/07 06:26:36;;;;;;;23.77;18.77;;;22.00;69.60;;;;;;5018740;28;20198;-46
2021/06/07 06:29:02;;;;;;;23.77;18.20;;;22.00;69.50;;;;;;5016210;28;20928;-52
2021/06/07 06:31:28;;;;;;;23.43;17.77;;;22.00;69.70;;;;;;5016797;28;20425;-49
2021/06/07 06:33:53;;;;;;;29.57;18.20;;;22.00;69.70;;;;;;5023663;28;20445;-46
2021/06/07 06:36:19;;;;;;;23.50;18.67;;;22.00;69.70;;;;;;5039658;28;20249;-50
2021/06/07 06:38:45;;;;;;;24.17;16.60;;;22.00;69.70;;;;;;5029066;28;20190;-49
2021/06/07 06:41:10;;;;;;;21.70;14.97;;;22.00;69.70;;;;;;5027245;28;20225;-50
2021/06/07 06:43:36;;;;;;;16.83;12.83;;;22.10;69.60;;;;;;5016721;28;20194;-50
2021/06/07 06:46:02;;;;;;;16.17;12.20;;;21.90;68.70;;;;;;5018650;28;20276;-46
2021/06/07 06:48:28;;;;;;;16.30;13.70;;;21.90;68.50;;;;;;5015138;28;20193;-47
2021/06/07 06:50:54;;;;;;;14.27;11.27;;;22.10;68.60;;;;;;5020229;28;20442;-50
2021/06/07 06:53:21;;;;;;;16.63;11.00;;;22.10;67.20;;;;;;5024973;28;20284;-50
2021/06/07 06:55:48;;;;;;;14.03;11.37;;;22.20;66.80;;;;;;5017785;28;20206;-52
2021/06/07 06:58:15;;;;;;;19.83;15.50;;;22.40;66.20;;;;;;5015878;28;20448;-47
2021/06/07 07:00:42;;;;;;;14.27;12.63;;;22.50;66.20;;;;;;5010499;28;20440;-47
2021/06/07 07:03:10;;;;;;;19.37;14.53;;;22.60;65.90;;;;;;5025316;28;20444;-48
2021/06/07 07:05:37;;;;;;;17.77;13.80;;;22.60;65.60;;;;;;5019439;28;20490;-50
2021/06/07 07:08:04;;;;;;;19.03;15.23;;;22.80;65.80;;;;;;5022621;28;20919;-48
2021/06/07 07:10:30;;;;;;;16.50;14.73;;;22.80;65.40;;;;;;5031669;28;20435;-51
2021/06/07 07:12:56;;;;;;;17.40;13.57;;;22.90;65.20;;;;;;5030203;28;21197;-48
2021/06/07 07:15:22;;;;;;;19.63;15.10;;;22.80;64.90;;;;;;5030333;28;20205;-48
2021/06/07 07:17:47;;;;;;;23.10;15.47;;;23.00;65.70;;;;;;5022326;28;20233;-52
2021/06/07 07:20:14;;;;;;;15.37;11.00;;;23.00;64.40;;;;;;5024327;28;20475;-48
2021/06/07 07:22:41;;;;;;;14.73;10.97;;;23.00;64.50;;;;;;5030745;28;20228;-51
2021/06/07 07:25:08;;;;;;;16.67;11.03;;;23.10;64.10;;;;;;5022553;28;20441;-48
2021/06/07 07:27:36;;;;;;;16.40;13.27;;;23.10;64.20;;;;;;5020905;28;20935;-51
2021/06/07 07:30:08;;;;;;;14.43;12.90;;;23.20;64.80;;;;;;5013272;28;20494;-51
2021/06/07 07:32:38;;;;;;;15.93;12.87;;;23.10;65.10;;;;;;5022441;28;20440;-51
2021/06/07 07:35:05;;;;;;;14.30;12.27;;;23.10;65.10;;;;;;5027300;28;20445;-52
2021/06/07 07:37:30;;;;;;;13.40;10.07;;;23.10;65.00;;;;;;5032586;28;20427;-49
2021/06/07 07:39:56;;;;;;;13.00;9.07;;;23.10;64.60;;;;;;5028292;28;20432;-51
2021/06/07 07:42:22;;;;;;;17.40;15.00;;;23.20;64.20;;;;;;5031151;28;20221;-48
2021/06/07 07:44:47;;;;;;;13.47;10.63;;;23.30;63.80;;;;;;5025807;28;20216;-49
2021/06/07 07:47:13;;;;;;;17.30;14.67;;;23.40;64.00;;;;;;5030908;28;20181;-48
2021/06/07 07:49:39;;;;;;;13.97;12.47;;;23.40;64.00;;;;;;5027221;28;20209;-47
2021/06/07 07:52:08;;;;;;;14.30;12.80;;;23.40;63.50;;;;;;5029298;28;20190;-51
2021/06/07 07:54:34;;;;;;;17.03;14.10;;;23.50;63.30;;;;;;5031390;28;20229;-51
2021/06/07 07:57:00;;;;;;;16.27;13.70;;;23.60;63.60;;;;;;5029488;28;20950;-51
2021/06/07 07:59:26;;;;;;;15.60;11.67;;;23.50;63.50;;;;;;5029595;28;20449;-48
2021/06/07 08:01:52;;;;;;;17.87;14.20;;;23.60;63.20;;;;;;5025916;28;20591;-52
2021/06/07 08:04:17;;;;;;;16.63;14.20;;;23.60;63.20;;;;;;5028654;28;20194;-52
2021/06/07 08:06:44;;;;;;;14.27;12.63;;;23.60;63.60;;;;;;5028303;28;20217;-52
2021/06/07 08:09:11;;;;;;;15.20;13.57;;;23.40;63.80;;;;;;5027896;28;20190;-49
2021/06/07 08:11:37;;;;;;;13.67;12.23;;;23.40;64.00;;;;;;5031969;28;20432;-52
2021/06/07 08:14:04;;;;;;;17.60;14.57;;;23.40;64.20;;;;;;5029063;28;20574;-49
2021/06/07 08:16:29;;;;;;;17.70;14.20;;;23.40;64.40;;;;;;5029628;28;21007;-51
2021/06/07 08:18:55;;;;;;;20.07;13.70;;;23.30;64.70;;;;;;5028030;28;20559;-48
2021/06/07 08:21:21;;;;;;;13.77;11.67;;;23.20;65.20;;;;;;5028885;28;20225;-48
2021/06/07 08:23:47;;;;;;;15.60;13.80;;;23.20;65.50;;;;;;5029840;28;20189;-50
2021/06/07 08:26:12;;;;;;;13.93;12.43;;;23.20;65.20;;;;;;5022783;28;20208;-49
2021/06/07 08:28:38;;;;;;;20.83;14.80;;;23.30;64.80;;;;;;5027543;28;20202;-49
2021/06/07 08:31:04;;;;;;;15.67;12.53;;;23.30;64.90;;;;;;5031029;28;20204;-49
2021/06/07 08:33:31;;;;;;;13.30;10.53;;;23.30;65.40;;;;;;5027814;28;20946;-48
2021/06/07 08:35:58;;;;;;;12.47;11.20;;;23.30;65.10;;;;;;5023705;28;20208;-48
2021/06/07 08:38:24;;;;;;;17.93;15.80;;;23.40;65.60;;;;;;5029095;28;20506;-49
2021/06/07 08:40:53;;;;;;;20.30;15.60;;;23.40;64.80;;;;;;5030096;28;20432;-51
2021/06/07 08:43:19;;;;;;;19.20;15.90;;;23.30;65.20;;;;;;5029732;28;20435;-50
2021/06/07 08:45:45;;;;;;;19.10;15.40;;;23.20;65.70;;;;;;5029010;28;20777;-47
2021/06/07 08:48:11;;;;;;;20.13;16.30;;;23.10;66.20;;;;;;5027597;28;20440;-49
2021/06/07 08:50:37;;;;;;;15.97;13.33;;;23.10;66.30;;;;;;5027953;28;20443;-50
2021/06/07 08:53:03;;;;;;;20.30;13.67;;;23.20;66.10;;;;;;5028284;28;20675;-53
2021/06/07 08:55:31;;;;;;;15.80;14.00;;;23.20;66.20;;;;;;5028058;28;20280;-48
2021/06/07 08:57:57;;;;;;;18.10;14.70;;;23.30;66.10;;;;;;5032382;28;20432;-49
2021/06/07 09:00:25;;;;;;;18.47;15.20;;;23.30;65.70;;;;;;5029577;28;20826;-49
2021/06/07 09:03:02;;;;;;;16.83;13.40;;;23.20;65.80;;;;;;5026897;28;20225;-48
2021/06/07 09:05:28;;;;;;;17.53;14.70;;;23.20;66.00;;;;;;5026927;28;20489;-50
2021/06/07 09:08:06;;;;;;;20.20;15.60;;;23.20;66.20;;;;;;5025220;28;20450;-52
2021/06/07 09:10:39;;;;;;;18.03;15.17;;;23.20;66.10;;;;;;5025263;28;20440;-49
2021/06/07 09:13:07;;;;;;;21.13;16.10;;;23.10;66.40;;;;;;5024343;28;21062;-50
2021/06/07 09:15:46;;;;;;;20.30;16.80;;;23.20;66.30;;;;;;5021458;28;20447;-53
2021/06/07 09:18:32;;;;;;;19.23;16.30;;;23.30;66.20;;;;;;5026776;28;20475;-49
2021/06/07 09:21:04;;;;;;;19.83;15.97;;;23.40;66.30;;;;;;5037730;28;20499;-48
2021/06/07 09:23:43;;;;;;;17.73;14.87;;;23.40;66.10;;;;;;5026407;28;20440;-53
2021/06/07 09:26:24;;;;;;;14.53;12.60;;;23.20;66.60;;;;;;5022409;28;20447;-49
2021/06/07 09:28:52;;;;;;;20.00;16.10;;;23.30;66.30;;;;;;5022055;28;20440;-51
2021/06/07 09:31:25;;;;;;;15.37;13.07;;;23.40;66.20;;;;;;5031658;28;20437;-53
2021/06/07 09:33:51;;;;;;;18.70;12.20;;;23.50;65.80;;;;;;5025893;28;20566;-52
2021/06/07 09:36:25;;;;;;;16.90;15.00;;;23.50;65.40;;;;;;5020490;28;20432;-52
2021/06/07 09:38:57;;;;;;;13.57;10.70;;;23.60;64.60;;;;;;5027441;28;20191;-50
2021/06/07 09:41:25;;;;;;;20.10;16.13;;;23.80;63.40;;;;;;5028526;28;20472;-53
2021/06/07 09:43:53;;;;;;;18.83;15.47;;;23.70;64.30;;;;;;5038882;28;20995;-52
2021/06/07 09:46:27;;;;;;;17.47;15.67;;;23.70;65.00;;;;;;5031347;28;20435;-48
2021/06/07 09:49:11;;;;;;;17.40;14.87;;;23.70;65.30;;;;;;5019455;28;20475;-49
2021/06/07 09:51:38;;;;;;;17.47;15.60;;;23.70;65.40;;;;;;5028495;28;20443;-51
2021/06/07 09:54:05;;;;;;;18.37;16.43;;;23.70;65.30;;;;;;5022721;28;20436;-51
2021/06/07 09:56:31;;;;;;;19.57;17.53;;;23.70;65.30;;;;;;5023856;28;20452;-53
2021/06/07 09:58:57;;;;;;;20.03;16.00;;;23.80;65.40;;;;;;5027672;28;20420;-49
2021/06/07 10:01:31;;;;;;;19.50;14.13;;;23.80;65.00;;;;;;5019588;28;20478;-48
2021/06/07 10:03:58;;;;;;;22.53;16.63;;;23.80;64.30;;;;;;5020513;28;20197;-52
2021/06/07 10:06:34;;;;;;;20.97;17.50;;;23.80;64.30;;;;;;5019549;28;20452;-52
2021/06/07 10:09:02;;;;;;;20.00;17.90;;;23.80;64.40;;;;;;5024245;28;20476;-52
2021/06/07 10:11:45;;;;;;;24.27;17.03;;;23.90;64.40;;;;;;5021509;28;20425;-52
2021/06/07 10:14:17;;;;;;;21.53;16.37;;;24.00;64.50;;;;;;5018583;28;20440;-53
2021/06/07 10:16:53;;;;;;;20.40;17.20;;;24.10;64.00;;;;;;5027866;28;20436;-48
2021/06/07 10:19:20;;;;;;;24.93;17.40;;;24.10;64.00;;;;;;5026466;28;20452;-49
2021/06/07 10:21:48;;;;;;;21.90;18.77;;;24.20;64.20;;;;;;5021319;28;20484;-50
2021/06/07 10:24:14;;;;;;;23.13;17.27;;;24.20;63.70;;;;;;5014518;28;20432;-49
2021/06/07 10:26:40;;;;;;;19.83;15.33;;;24.30;63.00;;;;;;5042495;28;20442;-52
2021/06/07 10:29:06;;;;;;;22.10;16.60;;;24.30;62.80;;;;;;5021998;28;20469;-49
2021/06/07 10:31:37;;;;;;;17.17;15.43;;;24.30;62.40;;;;;;5018142;28;20232;-52
2021/06/07 10:34:05;;;;;;;17.20;15.50;;;24.50;62.90;;;;;;5026066;28;20189;-52
2021/06/07 10:36:34;;;;;;;21.10;17.53;;;24.50;63.20;;;;;;5024925;28;20439;-48
2021/06/07 10:39:09;;;;;;;20.47;14.67;;;24.50;62.20;;;;;;5023791;28;20436;-52
2021/06/07 10:41:35;;;;;;;13.80;11.60;;;24.60;61.60;;;;;;5031740;28;20497;-51
2021/06/07 10:44:02;;;;;;;17.23;14.60;;;24.70;61.10;;;;;;5023133;28;20484;-52
2021/06/07 10:46:33;;;;;;;17.03;13.77;;;24.80;61.00;;;;;;5032950;28;20776;-52
2021/06/07 10:49:00;;;;;;;14.90;13.30;;;24.80;61.50;;;;;;5029723;28;20439;-51
2021/06/07 10:51:34;;;;;;;17.73;15.60;;;24.80;60.90;;;;;;5028994;28;20786;-52
2021/06/07 10:54:27;;;;;;;17.53;14.87;;;24.90;60.70;;;;;;5018853;28;20421;-52
2021/06/07 10:56:53;;;;;;;14.47;12.97;;;24.90;61.10;;;;;;5038654;28;20936;-50
2021/06/07 10:59:19;;;;;;;16.70;13.37;;;24.80;61.40;;;;;;5036620;28;20466;-51
2021/06/07 11:01:53;;;;;;;16.90;14.90;;;24.80;61.20;;;;;;5038652;28;20220;-51
2021/06/07 11:04:45;;;;;;;15.53;13.90;;;24.80;61.40;;;;;;5019923;28;20201;-52
2021/06/07 11:07:12;;;;;;;15.60;12.60;;;24.70;60.90;;;;;;5031582;28;20440;-52
2021/06/07 11:10:15;;;;;;;17.93;15.30;;;24.80;60.70;;;;;;5032203;28;20424;-49
2021/06/07 11:12:41;;;;;;;14.47;12.70;;;25.00;60.40;;;;;;5025424;28;20439;-50
2021/06/07 11:15:08;;;;;;;14.70;13.20;;;25.00;60.30;;;;;;5026171;28;20925;-52
2021/06/07 11:17:34;;;;;;;16.77;13.70;;;25.00;60.50;;;;;;5021009;28;20487;-52
2021/06/07 11:20:00;;;;;;;14.37;12.83;;;25.00;60.20;;;;;;5032533;28;20431;-53
2021/06/07 11:22:25;;;;;;;17.40;14.27;;;25.10;60.20;;;;;;5033079;28;20271;-52
2021/06/07 11:24:51;;;;;;;17.83;15.03;;;25.20;59.90;;;;;;5022817;28;20533;-52
2021/06/07 11:27:38;;;;;;;17.73;15.80;;;25.10;59.90;;;;;;5024439;28;20654;-52
2021/06/07 11:30:18;;;;;;;21.67;19.33;;;25.10;60.60;;;;;;5035295;28;20475;-49
2021/06/07 11:32:44;;;;;;;25.33;20.53;;;25.20;60.90;;;;;;5031640;28;20474;-53
2021/06/07 11:35:39;;;;;;;26.13;20.67;;;25.20;61.10;;;;;;5025926;28;20471;-53
2021/06/07 11:38:31;;;;;;;22.60;20.20;;;25.20;61.90;;;;;;5029328;28;20189;-52
2021/06/07 11:40:58;;;;;;;23.37;20.57;;;25.10;63.30;;;;;;5030683;28;20442;-53
2021/06/07 11:43:45;;;;;;;24.87;22.27;;;25.10;64.20;;;;;;5033254;28;20532;-52
2021/06/07 11:46:31;;;;;;;27.50;21.97;;;25.00;64.60;;;;;;5029212;28;20470;-53
2021/06/07 11:49:12;;;;;;;23.10;20.60;;;25.00;65.80;;;;;;5025842;28;20915;-52
2021/06/07 11:51:39;;;;;;;25.40;20.90;;;25.00;65.40;;;;;;5029459;28;20432;-51
2021/06/07 11:54:27;;;;;;;19.93;17.90;;;25.00;65.70;;;;;;5031444;28;20436;-52
2021/06/07 11:56:52;;;;;;;25.07;21.20;;;25.00;65.80;;;;;;5028771;28;20570;-53
2021/06/07 11:59:29;;;;;;;23.83;21.37;;;25.00;66.10;;;;;;5025089;28;20567;-53
2021/06/07 12:01:55;;;;;;;26.10;23.33;;;25.10;65.40;;;;;;5033214;28;20247;-54
2021/06/07 12:04:32;;;;;;;24.50;21.70;;;25.00;65.90;;;;;;5020391;28;20482;-49
2021/06/07 12:07:13;;;;;;;27.50;22.83;;;25.00;66.10;;;;;;5020760;28;20209;-50
2021/06/07 12:09:42;;;;;;;28.73;20.50;;;25.00;66.40;;;;;;5024148;28;20460;-49
2021/06/07 12:12:09;;;;;;;25.87;21.30;;;25.00;66.10;;;;;;5019457;28;20442;-49
2021/06/07 12:14:39;;;;;;;29.07;22.00;;;25.10;66.10;;;;;;5033204;28;20471;-50
2021/06/07 12:17:07;;;;;;;24.80;21.60;;;25.00;66.60;;;;;;5026923;28;20559;-50
2021/06/07 12:19:40;;;;;;;28.63;22.27;;;25.00;66.80;;;;;;5029916;28;20454;-51
2021/06/07 12:22:07;;;;;;;23.30;20.00;;;25.00;66.80;;;;;;5019094;28;20488;-49
2021/06/07 12:24:34;;;;;;;23.77;21.17;;;25.00;66.70;;;;;;5023457;28;21828;-53
2021/06/07 12:29:47;;;;;;;25.80;22.67;;;24.90;68.20;;;;;;5019767;28;20463;-51
2021/06/07 12:32:21;;;;;;;23.23;20.83;;;24.80;67.50;;;;;;5019326;28;20444;-50
2021/06/07 12:35:16;;;;;;;24.10;21.50;;;24.90;67.90;;;;;;5026243;28;20526;-48
2021/06/07 12:37:50;;;;;;;21.23;19.17;;;25.00;69.80;;;;;;5016559;28;20514;-50